• Join FlightAware (Why Join?)
  • Login
  • US Flag 
Rudolph Flight #1: Arrived! 
03:42AM EST


 

Airport Tracker/Info


-or-


 

Live Flight TrackerFlight Track Log ✈ SWA580 ✈ 01-May-2013 ✈ KSTL - KHOU

Flight Track Log - Related Links

Times and Time Zones

All times are in EDT time to prevent confusion due to time zone crossing. See the SWA580 flight status page for this flight to view local times or setup timezone preferences in your user account.

Time Position Orientation Groundspeed Altitude Reporting Facility
EDT Latitude Longitude Course Direction KTS MPH feet Rate Location/Type
05:44PM 38.6242 -90.3022 194° South 226 260 7,000  Level Kansas City Center
05:45PM 38.5750 -90.3569 221° Southwest 259 298 10,400 2,640 Climbing Kansas City Center
05:46PM 38.5064 -90.4275 219° Southwest 307 353 12,500 2,820 Climbing Kansas City Center
05:47PM 38.4192 -90.5175 219° Southwest 353 406 16,300 3,300 Climbing Kansas City Center
05:48PM 38.2474 -90.6859 218° Southwest  Level FlightAware Approximate
05:48PM 38.3303 -90.6097 219° Southwest 377 434 19,400  Level Kansas City Center
05:49PM 38.2428 -90.6992 219° Southwest 400 460 22,300 2,640 Climbing Kansas City Center
05:50PM 38.1475 -90.7853 215° Southwest 408 470 24,900 2,280 Climbing Kansas City Center
05:51PM 38.0356 -90.8269 196° South 419 482 27,100 1,980 Climbing Kansas City Center
05:52PM 37.9267 -90.8722 198° South 422 486 29,100 1,980 Climbing Kansas City Center
05:53PM 37.8122 -90.9183 198° South 429 494 31,200 1,380 Climbing Kansas City Center
05:54PM 37.6792 -90.9725 198° South 422 486 32,000 360 Climbing Kansas City Center
05:55PM 37.5706 -91.0161 198° South 422 486 32,000 240 Level Kansas City Center
05:56PM 37.4594 -91.0628 198° South 419 482 32,500 480 Climbing Kansas City Center
05:57PM 37.3492 -91.1100 199° South 418 481 33,000 240 Climbing Kansas City Center
05:58PM 37.2158 -91.1647 198° South 417 480 33,000 600 Level Kansas City Center
05:59PM 37.1061 -91.2100 198° South 415 478 34,300 1,560 Climbing Memphis Center
06:00PM 36.9994 -91.2556 199° South 415 478 36,200 1,380 Climbing Memphis Center
06:01PM 36.8908 -91.2986 198° South 420 483 37,100 720 Climbing Memphis Center
06:02PM 36.7906 -91.3467 201° Southwest 420 483 37,700 960 Climbing Memphis Center
06:03PM 36.6817 -91.4075 204° Southwest 430 495 39,100 1,140 Climbing Memphis Center
06:04PM 36.5728 -91.4628 202° Southwest 435 501 40,000 420 Climbing Memphis Center
06:05PM 36.4533 -91.5308 205° Southwest 435 501 40,000  Level Memphis Center
06:06PM 36.3422 -91.5911 204° Southwest 435 501 40,000  Level Memphis Center
06:07PM 36.2311 -91.6486 203° Southwest 435 501 40,000  Level Memphis Center
06:08PM 36.1264 -91.7036 203° Southwest 435 501 40,000  Level Memphis Center
06:09PM 36.0172 -91.7633 204° Southwest 435 501 40,000  Level Memphis Center
06:10PM 35.9228 -91.8156 204° Southwest 423 487 40,000  Level Memphis Center
06:11PM 35.8158 -91.8700 202° Southwest 423 487 40,000  Level Memphis Center
06:12PM 35.7047 -91.9292 203° Southwest 423 487 40,000  Level Memphis Center
06:13PM 35.5975 -91.9861 203° Southwest 423 487 40,000  Level Memphis Center
06:14PM 35.4883 -92.0450 204° Southwest 423 487 40,000  Level Memphis Center
06:15PM 35.3792 -92.1014 203° Southwest 423 487 40,000  Level Memphis Center
06:16PM 35.2697 -92.1578 203° Southwest 423 487 40,000  Level Memphis Center
06:17PM 35.1625 -92.2164 204° Southwest 423 487 40,000  Level Memphis Center
06:18PM 35.0533 -92.2697 202° Southwest 423 487 40,000  Level Memphis Center
06:19PM 34.9461 -92.3256 203° Southwest 423 487 40,000  Level Memphis Center
06:20PM 34.8303 -92.3861 203° Southwest 428 493 40,000  Level Memphis Center
06:21PM 34.7231 -92.4417 203° Southwest 435 501 40,000  Level Memphis Center
06:22PM 34.5989 -92.5067 203° Southwest 435 501 40,000  Level Memphis Center
06:23PM 34.4850 -92.5619 202° Southwest 441 507 40,000  Level Memphis Center
06:24PM 34.3733 -92.6219 204° Southwest 441 507 40,000  Level Memphis Center
06:25PM 34.2597 -92.6792 203° Southwest 441 507 40,000  Level Memphis Center
06:27PM 34.0139 -92.8108 204° Southwest 423 487 40,000  Level Fort Worth Center
06:28PM 33.9031 -92.8642 202° Southwest 433 498 40,000  Level Fort Worth Center
06:29PM 33.7878 -92.9075 197° South 433 498 40,000  Level Fort Worth Center
06:30PM 33.6703 -92.9486 196° South 438 504 40,000  Level Fort Worth Center
06:31PM 33.5528 -92.9894 196° South 438 504 40,000  Level Fort Worth Center
06:32PM 33.4353 -93.0303 196° South 438 504 40,000  Level Fort Worth Center
06:33PM 33.3178 -93.0733 197° South 438 504 40,000  Level Fort Worth Center
06:34PM 33.1981 -93.1114 195° South 438 504 40,000  Level Fort Worth Center
06:35PM 33.0806 -93.1542 197° South 438 504 40,000  Level Fort Worth Center
06:36PM 32.9608 -93.1947 196° South 438 504 40,000  Level Fort Worth Center
06:37PM 32.8453 -93.2322 195° South 438 504 40,000  Level Fort Worth Center
06:38PM 32.7297 -93.2747 197° South 438 504 40,000  Level Fort Worth Center
06:39PM 32.6142 -93.3144 196° South 433 498 40,000  Level Fort Worth Center
06:40PM 32.4939 -93.3347 188° South 433 498 40,000  Level Fort Worth Center
06:41PM 32.3753 -93.3475 185° South 428 493 40,000  Level Fort Worth Center
06:44PM 32.0956 -93.3822 186° South 427 491 40,000  Level Houston Center
06:45PM 31.9772 -93.3956 185° South 425 489 40,000  Level Houston Center
06:46PM 31.8353 -93.4119 186° South 428 493 40,000  Level Houston Center
06:47PM 31.7172 -93.4247 185° South 427 491 40,000  Level Houston Center
06:48PM 31.5964 -93.4375 185° South 432 497 40,000  Level Houston Center
06:49PM 31.4772 -93.4481 184° South 433 498 40,000  Level Houston Center
06:50PM 31.3575 -93.4556 183° South 433 498 40,000  Level Houston Center
06:51PM 31.2336 -93.4636 183° South 437 503 40,000 -120 Level Houston Center
06:52PM 31.1114 -93.4725 184° South 440 506 39,800 -840 Descending Houston Center
06:53PM 30.9692 -93.5036 191° South 432 497 38,300 -1,440 Descending Houston Center
06:54PM 30.8506 -93.5375 194° South 438 504 36,900 -1,560 Descending Houston Center
06:55PM 30.7369 -93.5892 201° Southwest 439 505 35,100 -1,920 Descending Houston Center
06:56PM 30.6772 -93.7089 240° Southwest 447 514 33,000 -2,400 Descending Houston Center
06:57PM 30.6478 -93.8469 256° West 446 513 30,300 -2,640 Descending Houston Center
06:58PM 30.6161 -93.9850 255° West 447 514 27,600 -2,820 Descending Houston Center
06:59PM 30.5789 -94.1528 256° West 451 519 24,500 -2,580 Descending Houston Center
07:00PM 30.5478 -94.2839 255° West 434 499 22,300 -1,920 Descending Houston Center
07:01PM 30.5222 -94.4092 257° West 390 449 20,700 -1,560 Descending Houston Center
07:02PM 30.4853 -94.5297 250° West 373 429 19,200 -1,860 Descending Houston Center
07:03PM 30.4256 -94.6256 234° Southwest 365 420 17,000 -2,220 Descending Houston Center
07:04PM 30.3653 -94.7181 233° Southwest 359 413 14,900 -1,980 Descending Houston Center
07:05PM 30.3047 -94.8106 233° Southwest 351 404 13,000 -900 Descending Houston Center
07:06PM 30.2406 -94.9106 233° Southwest 344 396 13,000  Level Houston Center
07:07PM 30.1839 -95.0000 234° Southwest 344 396 13,000 -360 Level Houston Center
07:09PM 30.1139 -95.0811 225° Southwest 361 415 12,300 -840 Descending Houston Center
07:10PM 30.0189 -95.1219 200° South 360 414 11,300 -1,020 Descending Houston Center
07:11PM 29.9261 -95.1622 201° Southwest 351 404 10,300 -780 Descending Houston Center
07:12PM 29.8350 -95.2000 200° South 306 352 9,800 -960 Descending Houston Center
07:13PM 29.7611 -95.2336 202° Southwest 318 366 8,400 -1,320 Descending Houston Center
07:14PM 29.6847 -95.2661 200° South 296 341 7,100 -1,020 Descending Houston Center
07:15PM 29.5939 -95.2483 170° South 266 306 6,400 -780 Descending Houston Center
07:16PM 29.5389 -95.2672 197° South 242 278 5,700 -1,080 Descending Houston Center
07:17PM 29.4842 -95.3339 227° Southwest 232 267 4,100 -1,200 Descending Houston Center
07:18PM 29.5136 -95.3853 303° West 226 260 3,000 -1,140 Descending Houston Center
07:19PM 29.5592 -95.3728 13° North 183 211 2,100 -960 Descending Houston Center
07:20PM 29.5975 -95.3322 43° Northeast 143 165 1,200 -840 Descending Houston Center
07:21PM 29.6256 -95.2975 47° Northeast 141 162 400 -840 Descending Houston Center